Time;durP1;ratioP1;P1;durP2;ratioP2;P2;SDS_P1;SDS_P2;PMS_P1;PMS_P2;Temp;Humidity;BMP_temperature;BMP_pressure;BME280_temperature;BME280_humidity;BME280_pressure;Samples;Min_cycle;Max_cycle;Signal;HPM_P1;HPM_P2
2021/05/21 00:00:25;;;;;;;14.90;3.38;;;;;;;12.57;63.48;100618.56;5107292;28;20555;-66
2021/05/21 00:02:50;;;;;;;15.43;3.60;;;;;;;12.53;63.64;100628.28;5099127;28;20024;-66
2021/05/21 00:05:15;;;;;;;14.82;3.40;;;;;;;12.60;63.26;100615.88;5107120;28;20069;-67
2021/05/21 00:07:41;;;;;;;15.73;3.80;;;;;;;12.52;63.90;100621.25;5104363;28;20085;-65
2021/05/21 00:10:07;;;;;;;11.27;3.50;;;;;;;12.53;63.50;100615.03;5105714;28;20118;-73
2021/05/21 00:12:32;;;;;;;14.02;3.90;;;;;;;12.53;63.80;100601.78;5105636;28;20020;-68
2021/05/21 00:14:58;;;;;;;19.52;3.83;;;;;;;12.48;63.93;100614.19;5104368;28;20024;-65
2021/05/21 00:17:23;;;;;;;12.90;3.42;;;;;;;12.42;64.16;100616.00;5106337;28;20036;-64
2021/05/21 00:19:48;;;;;;;14.77;3.50;;;;;;;12.44;64.38;100609.81;5103402;28;20506;-63
2021/05/21 00:22:14;;;;;;;12.20;3.50;;;;;;;12.34;64.40;100600.16;5106306;28;20069;-65
2021/05/21 00:24:39;;;;;;;13.50;3.63;;;;;;;12.34;64.29;100603.69;5102968;28;20099;-66
2021/05/21 00:27:05;;;;;;;15.05;3.60;;;;;;;12.34;64.78;100592.19;5105110;28;20024;-63
2021/05/21 00:29:30;;;;;;;14.45;3.47;;;;;;;12.39;64.59;100595.69;5105556;28;20061;-63
2021/05/21 00:31:55;;;;;;;12.18;3.58;;;;;;;12.37;65.48;100576.28;5103951;28;20103;-63
2021/05/21 00:34:21;;;;;;;13.18;3.58;;;;;;;12.41;64.72;100583.31;5106671;28;20470;-63
2021/05/21 00:36:46;;;;;;;15.90;3.85;;;;;;;12.42;64.66;100585.09;5103265;28;20028;-63
2021/05/21 00:39:11;;;;;;;13.95;3.60;;;;;;;12.41;65.06;100580.66;5106008;28;20458;-63
2021/05/21 00:41:36;;;;;;;16.33;3.90;;;;;;;12.34;64.76;100565.69;5104279;28;20035;-63
2021/05/21 00:44:02;;;;;;;16.60;4.00;;;;;;;12.30;64.85;100545.41;5104186;28;20024;-63
2021/05/21 00:46:27;;;;;;;13.13;3.63;;;;;;;12.33;65.56;100548.03;5105567;28;20035;-63
2021/05/21 00:48:53;;;;;;;17.10;4.30;;;;;;;12.33;65.59;100553.31;5103417;28;20035;-63
2021/05/21 00:51:19;;;;;;;14.05;3.67;;;;;;;12.35;65.69;100541.84;5106457;28;20027;-63
2021/05/21 00:53:45;;;;;;;16.70;3.90;;;;;;;12.31;65.83;100544.53;5098723;28;20028;-63
2021/05/21 00:56:11;;;;;;;13.90;3.70;;;;;;;12.32;65.16;100540.97;5105711;28;20020;-63
2021/05/21 00:58:36;;;;;;;15.07;3.90;;;;;;;12.46;64.90;100547.03;5103849;28;20382;-63
2021/05/21 01:01:03;;;;;;;12.63;3.50;;;;;;;12.42;64.60;100544.41;5104462;28;20474;-63
2021/05/21 01:03:29;;;;;;;15.25;3.70;;;;;;;12.45;64.94;100534.69;5104360;28;20055;-63
2021/05/21 01:05:54;;;;;;;11.55;3.55;;;;;;;12.40;64.64;100528.53;5103467;28;20137;-63
2021/05/21 01:08:20;;;;;;;15.10;3.63;;;;;;;12.36;65.00;100521.50;5105401;28;20118;-63
2021/05/21 01:10:46;;;;;;;13.45;3.60;;;;;;;12.31;65.81;100520.66;5102267;28;20028;-72
2021/05/21 01:13:12;;;;;;;14.38;3.63;;;;;;;12.36;64.38;100529.44;5105673;28;20034;-73
2021/05/21 01:15:39;;;;;;;18.92;4.07;;;;;;;12.33;65.27;100526.81;5102846;28;20044;-75
2021/05/21 01:18:09;;;;;;;14.05;3.50;;;;;;;12.27;65.59;100521.56;5104930;28;20030;-75
2021/05/21 01:20:36;;;;;;;14.38;3.72;;;;;;;12.29;65.15;100522.44;5102905;28;20027;-75
2021/05/21 01:23:03;;;;;;;16.10;3.80;;;;;;;12.23;64.95;100515.41;5103838;28;20027;-75
2021/05/21 01:25:28;;;;;;;15.77;3.67;;;;;;;12.17;65.70;100512.81;5104226;28;20055;-74
2021/05/21 01:27:55;;;;;;;14.68;3.75;;;;;;;12.19;65.94;100509.25;5103995;28;20019;-76
2021/05/21 01:30:21;;;;;;;12.73;3.60;;;;;;;12.16;66.39;100497.81;5103508;28;20444;-70
2021/05/21 01:32:47;;;;;;;16.27;3.45;;;;;;;12.08;66.68;100495.22;5105072;28;20024;-76
2021/05/21 01:35:15;;;;;;;14.38;3.70;;;;;;;12.05;66.32;100492.59;5101699;28;20483;-68
2021/05/21 01:37:43;;;;;;;12.48;3.50;;;;;;;12.12;65.90;100478.41;5105494;28;20133;-75
2021/05/21 01:40:11;;;;;;;13.88;3.40;;;;;;;12.14;66.22;100479.25;5097802;28;20027;-69
2021/05/21 01:42:37;;;;;;;14.18;3.67;;;;;;;12.08;66.34;100466.06;5104919;28;20031;-65
2021/05/21 01:45:03;;;;;;;15.85;3.90;;;;;;;12.01;66.47;100467.00;5102632;28;20015;-63
2021/05/21 01:47:28;;;;;;;13.55;3.50;;;;;;;12.03;65.77;100450.22;5104224;28;20030;-63
2021/05/21 01:49:54;;;;;;;15.63;3.60;;;;;;;12.08;66.14;100452.81;5102627;28;20032;-63
2021/05/21 01:52:19;;;;;;;16.20;3.72;;;;;;;12.08;66.40;100457.25;5103276;28;20035;-63
2021/05/21 01:54:44;;;;;;;13.85;3.50;;;;;;;12.04;66.00;100456.38;5104305;28;20023;-63
2021/05/21 01:57:10;;;;;;;15.13;3.50;;;;;;;11.99;68.41;100452.91;5102204;28;20497;-63
2021/05/21 01:59:36;;;;;;;15.05;4.00;;;;;;;11.73;68.97;100440.69;5104942;28;20073;-63
2021/05/21 02:02:02;;;;;;;15.68;3.47;;;;;;;11.65;69.11;100447.81;5101399;28;20031;-65
2021/05/21 02:04:32;;;;;;;14.23;3.65;;;;;;;11.69;68.19;100431.91;5104901;28;20023;-64
2021/05/21 02:06:58;;;;;;;11.90;3.53;;;;;;;11.71;67.76;100426.59;5101462;28;20060;-63
2021/05/21 02:09:24;;;;;;;14.10;3.55;;;;;;;11.91;67.03;100433.50;5102765;28;20024;-63
2021/05/21 02:11:49;;;;;;;13.63;3.50;;;;;;;12.02;66.59;100431.69;5102982;28;20078;-64
2021/05/21 02:14:14;;;;;;;13.35;3.63;;;;;;;12.03;66.33;100446.69;5103052;28;20076;-63
2021/05/21 02:16:40;;;;;;;16.33;4.40;;;;;;;12.04;69.63;100466.97;5103655;28;20047;-65
2021/05/21 02:19:06;;;;;;;21.83;6.28;;;;;;;11.43;79.48;100470.88;5100360;28;20111;-66
2021/05/21 02:21:32;;;;;;;21.80;6.40;;;;;;;11.11;84.95;100472.78;5104501;28;20102;-71
2021/05/21 02:24:02;;;;;;;23.67;7.18;;;;;;;10.67;87.98;100470.25;5101440;28;20023;-69
2021/05/21 02:26:27;;;;;;;25.17;7.90;;;;;;;10.29;99.64;100512.56;5103619;28;20031;-72
2021/05/21 02:28:53;;;;;;;27.60;7.70;;;;;;;10.29;100.00;100493.16;5102022;28;20028;-72
2021/05/21 02:31:19;;;;;;;26.10;7.82;;;;;;;10.24;100.00;100501.09;5102982;28;20020;-71
2021/05/21 02:33:44;;;;;;;28.10;7.80;;;;;;;9.85;100.00;100478.16;5103230;28;20028;-72
2021/05/21 02:36:09;;;;;;;31.05;8.40;;;;;;;9.76;100.00;100490.47;5101582;28;20016;-72
2021/05/21 02:38:34;;;;;;;32.45;8.40;;;;;;;9.60;100.00;100486.03;5104529;28;20429;-72
2021/05/21 02:41:00;;;;;;;33.75;8.95;;;;;;;9.43;100.00;100481.56;5101160;28;20530;-70
2021/05/21 02:43:25;;;;;;;29.80;7.97;;;;;;;9.39;100.00;100479.81;5103925;28;20031;-72
2021/05/21 02:45:50;;;;;;;32.22;8.30;;;;;;;9.37;100.00;100476.28;5102074;28;20031;-70
2021/05/21 02:48:16;;;;;;;32.45;7.50;;;;;;;9.39;100.00;100465.72;5103208;28;20059;-71
2021/05/21 02:50:43;;;;;;;32.40;7.90;;;;;;;9.29;100.00;100470.13;5102364;28;20063;-67
2021/05/21 02:53:09;;;;;;;32.10;8.18;;;;;;;9.29;100.00;100472.75;5102426;28;20028;-67
2021/05/21 02:55:34;;;;;;;36.85;8.20;;;;;;;9.25;100.00;100470.97;5103337;28;20064;-69
2021/05/21 02:58:00;;;;;;;32.28;7.78;;;;;;;9.17;100.00;100456.88;5101296;28;20024;-67
2021/05/21 03:00:26;;;;;;;34.20;7.90;;;;;;;9.13;100.00;100450.72;5104793;28;20445;-71
2021/05/21 03:02:51;;;;;;;36.42;8.65;;;;;;;9.07;100.00;100462.13;5100652;28;20028;-70
2021/05/21 03:05:17;;;;;;;31.85;8.20;;;;;;;9.05;100.00;100448.03;5096815;28;20031;-68
2021/05/21 03:07:43;;;;;;;34.03;8.38;;;;;;;9.04;100.00;100459.47;5103971;28;20026;-71
2021/05/21 03:10:09;;;;;;;34.33;7.80;;;;;;;9.01;100.00;100458.56;5101945;28;20399;-72
2021/05/21 03:12:34;;;;;;;35.55;8.27;;;;;;;8.97;100.00;100452.41;5102675;28;20028;-72
2021/05/21 03:14:59;;;;;;;33.13;8.32;;;;;;;8.96;100.00;100449.75;5101266;28;20070;-69
2021/05/21 03:17:25;;;;;;;31.42;7.88;;;;;;;8.99;100.00;100442.72;5100903;28;20123;-69
2021/05/21 03:19:50;;;;;;;32.28;8.18;;;;;;;8.97;100.00;100438.31;5104124;28;20043;-70
2021/05/21 03:22:15;;;;;;;33.17;8.18;;;;;;;8.94;100.00;100435.66;5100982;28;20027;-63
2021/05/21 03:24:41;;;;;;;33.05;8.07;;;;;;;8.94;100.00;100427.75;5103502;28;20386;-63
2021/05/21 03:27:06;;;;;;;34.25;8.38;;;;;;;8.97;100.00;100414.59;5102035;28;20482;-65
2021/05/21 03:29:32;;;;;;;35.30;8.52;;;;;;;8.98;100.00;100417.22;5101904;28;20466;-64
2021/05/21 03:31:57;;;;;;;35.00;9.05;;;;;;;8.99;100.00;100416.38;5103248;28;20076;-68
2021/05/21 03:34:22;;;;;;;34.55;8.65;;;;;;;9.01;100.00;100406.72;5100580;28;20020;-63
2021/05/21 03:36:48;;;;;;;32.97;8.80;;;;;;;9.03;100.00;100407.59;5105216;28;20467;-70
2021/05/21 03:39:14;;;;;;;35.90;8.65;;;;;;;9.05;100.00;100410.25;5104383;28;20017;-72
2021/05/21 03:41:39;;;;;;;29.98;8.90;;;;;;;9.08;100.00;100400.56;5106889;28;20028;-68
2021/05/21 03:44:05;;;;;;;32.80;8.77;;;;;;;9.12;100.00;100400.59;5106014;28;20019;-70
2021/05/21 03:46:31;;;;;;;30.63;8.55;;;;;;;9.14;100.00;100388.28;5105370;28;20024;-72
2021/05/21 03:48:57;;;;;;;32.63;8.90;;;;;;;9.14;100.00;100399.72;5106707;28;20036;-74
2021/05/21 03:51:22;;;;;;;34.10;9.52;;;;;;;9.18;100.00;100390.94;5103263;28;20024;-67
2021/05/21 03:53:47;;;;;;;34.90;9.70;;;;;;;9.18;100.00;100400.63;5107323;28;20028;-70
2021/05/21 03:56:13;;;;;;;32.25;9.02;;;;;;;9.28;100.00;100391.84;5103941;28;20028;-67
2021/05/21 03:58:39;;;;;;;32.67;9.20;;;;;;;9.32;100.00;100396.25;5106933;28;20026;-72
2021/05/21 04:01:05;;;;;;;33.08;8.93;;;;;;;9.40;100.00;100401.56;5104645;28;20020;-66
2021/05/21 04:03:31;;;;;;;32.15;9.73;;;;;;;9.47;100.00;100389.25;5105946;28;20036;-70
2021/05/21 04:05:56;;;;;;;31.92;9.35;;;;;;;9.47;100.00;100386.63;5105115;28;20024;-71
2021/05/21 04:08:22;;;;;;;30.60;9.05;;;;;;;9.49;100.00;100390.13;5104926;28;20085;-69
2021/05/21 04:10:47;;;;;;;31.23;9.40;;;;;;;9.49;100.00;100387.50;5106786;28;20408;-69
2021/05/21 04:13:13;;;;;;;29.00;8.80;;;;;;;9.57;100.00;100388.41;5103395;28;20028;-73
2021/05/21 04:15:38;;;;;;;29.33;7.60;;;;;;;9.74;100.00;100375.19;5106914;28;20040;-63
2021/05/21 04:18:07;;;;;;;26.20;7.03;;;;;;;9.85;96.56;100377.84;5103961;28;20489;-63
2021/05/21 04:20:32;;;;;;;29.85;7.20;;;;;;;9.98;91.91;100376.97;5106351;28;20374;-63
2021/05/21 04:22:57;;;;;;;27.15;7.10;;;;;;;10.05;90.57;100370.78;5104759;28;20019;-63
2021/05/21 04:25:23;;;;;;;27.42;6.75;;;;;;;10.15;86.67;100391.91;5102364;28;20063;-63
2021/05/21 04:27:48;;;;;;;25.23;4.72;;;;;;;10.45;78.34;100370.75;5104754;28;20533;-63
2021/05/21 04:30:14;;;;;;;24.45;5.05;;;;;;;10.58;78.28;100368.06;5104359;28;20028;-63
2021/05/21 04:32:39;;;;;;;23.73;5.13;;;;;;;10.63;76.34;100368.94;5106042;28;20026;-63
2021/05/21 04:35:07;;;;;;;26.42;5.10;;;;;;;10.70;75.03;100370.66;5103097;28;20103;-63
2021/05/21 04:37:32;;;;;;;24.48;4.65;;;;;;;10.87;69.80;100404.09;5099611;28;20070;-63
2021/05/21 04:39:58;;;;;;;21.98;4.25;;;;;;;11.06;68.30;100379.31;5106264;28;20020;-63
2021/05/21 04:42:23;;;;;;;27.73;4.40;;;;;;;11.15;67.55;100368.72;5103774;28;20023;-63
2021/05/21 04:44:48;;;;;;;26.98;4.88;;;;;;;11.23;66.87;100352.78;5105028;28;20539;-63
2021/05/21 04:47:14;;;;;;;26.80;4.50;;;;;;;11.20;68.63;100366.03;5105321;28;20026;-62
2021/05/21 04:49:39;;;;;;;27.65;4.93;;;;;;;11.17;67.69;100358.13;5102182;28;20028;-63
2021/05/21 04:52:10;;;;;;;24.60;4.88;;;;;;;11.13;68.67;100351.94;5106534;28;20024;-74
2021/05/21 04:54:38;;;;;;;27.67;4.45;;;;;;;11.03;68.46;100337.03;5099301;28;20031;-72
2021/05/21 04:57:04;;;;;;;26.80;5.05;;;;;;;10.99;68.82;100348.50;5106108;28;20036;-71
2021/05/21 04:59:29;;;;;;;26.88;4.70;;;;;;;10.95;67.34;100359.97;5102999;28;20024;-74
2021/05/21 05:01:55;;;;;;;23.02;4.75;;;;;;;10.97;66.18;100358.22;5103705;28;20360;-71
2021/05/21 05:04:20;;;;;;;26.73;4.82;;;;;;;10.91;67.54;100359.13;5105233;28;20031;-70
2021/05/21 05:06:46;;;;;;;25.35;4.75;;;;;;;10.84;66.96;100367.09;5103870;28;20057;-72
2021/05/21 05:09:13;;;;;;;24.85;4.75;;;;;;;10.84;67.45;100348.59;5102569;28;20028;-73
2021/05/21 05:11:41;;;;;;;25.48;4.78;;;;;;;10.77;68.10;100347.72;5104851;28;20382;-73
2021/05/21 05:14:07;;;;;;;26.40;5.15;;;;;;;10.76;66.51;100359.19;5103410;28;20024;-70
2021/05/21 05:16:33;;;;;;;28.63;4.82;;;;;;;10.78;67.02;100339.78;5105271;28;20031;-67
2021/05/21 05:18:58;;;;;;;28.63;5.10;;;;;;;10.85;66.18;100338.00;5100897;28;20489;-77
2021/05/21 05:21:24;;;;;;;28.17;4.88;;;;;;;10.86;68.08;100315.09;5105598;28;20519;-68
2021/05/21 05:23:50;;;;;;;26.02;4.78;;;;;;;10.95;66.95;100325.59;5102836;28;20070;-63
2021/05/21 05:26:16;;;;;;;28.40;5.35;;;;;;;11.15;65.13;100329.03;5104623;28;20100;-65
2021/05/21 05:28:43;;;;;;;29.20;5.28;;;;;;;11.31;65.41;100306.00;5103442;28;20038;-63
2021/05/21 05:31:09;;;;;;;28.42;5.28;;;;;;;11.36;67.27;100316.53;5103883;28;20030;-63
2021/05/21 05:33:34;;;;;;;26.65;5.15;;;;;;;11.37;64.52;100299.75;5103996;28;20106;-64
2021/05/21 05:36:00;;;;;;;27.02;4.70;;;;;;;11.29;65.05;100306.91;5091750;28;20016;-74
2021/05/21 05:38:26;;;;;;;29.73;4.95;;;;;;;11.31;65.89;100311.28;5092464;28;20055;-75
2021/05/21 05:40:51;;;;;;;26.88;5.43;;;;;;;11.21;64.21;100311.34;5092716;28;20034;-70
2021/05/21 05:43:16;;;;;;;32.45;5.72;;;;;;;11.13;66.47;100314.91;5091561;28;20085;-77
2021/05/21 05:45:42;;;;;;;27.30;5.03;;;;;;;10.98;68.72;100317.69;5091713;28;20059;-69
2021/05/21 05:48:07;;;;;;;29.50;5.53;;;;;;;10.77;70.33;100316.88;5092293;28;20028;-71
2021/05/21 05:50:32;;;;;;;31.70;5.68;;;;;;;10.41;71.98;100318.81;5095303;28;20343;-77
2021/05/21 05:52:59;;;;;;;27.52;5.18;;;;;;;10.22;74.21;100317.06;5092419;28;20532;-72
2021/05/21 05:55:25;;;;;;;29.33;5.68;;;;;;;10.05;74.86;100325.91;5091933;28;20060;-71
2021/05/21 05:57:50;;;;;;;31.58;5.43;;;;;;;9.93;75.78;100328.53;5091960;28;20064;-71
2021/05/21 06:00:16;;;;;;;31.40;6.07;;;;;;;9.82;77.88;100325.94;5090984;28;20067;-68
2021/05/21 06:02:41;;;;;;;31.90;6.10;;;;;;;9.82;78.38;100315.38;5091790;28;20028;-73
2021/05/21 06:05:07;;;;;;;31.77;5.80;;;;;;;9.80;79.51;100313.59;5091161;28;20024;-66
2021/05/21 06:07:32;;;;;;;32.70;6.20;;;;;;;9.75;81.50;100311.84;5091402;28;20024;-66
2021/05/21 06:09:58;;;;;;;28.55;5.68;;;;;;;9.82;79.46;100309.22;5092395;28;20032;-69
2021/05/21 06:12:23;;;;;;;31.88;6.10;;;;;;;9.97;80.97;100303.91;5090816;28;20039;-67
2021/05/21 06:14:48;;;;;;;29.02;5.55;;;;;;;10.13;78.91;100307.38;5092274;28;20107;-69
2021/05/21 06:17:17;;;;;;;31.48;6.30;;;;;;;10.31;76.09;100301.19;5090733;28;20040;-66
2021/05/21 06:19:42;;;;;;;28.30;5.70;;;;;;;10.55;75.56;100302.88;5092896;28;20032;-67
2021/05/21 06:22:07;;;;;;;28.08;6.30;;;;;;;10.71;75.71;100302.81;5088189;28;20036;-64
2021/05/21 06:24:33;;;;;;;29.23;6.25;;;;;;;10.75;75.41;100289.59;5091555;28;20394;-68
2021/05/21 06:27:40;;;;;;;26.77;5.78;;;;;;;10.77;75.25;100290.44;5092221;28;20031;-68
2021/05/21 06:29:47;;;;;;;28.88;6.07;;;;;;;10.64;77.31;100289.66;5085243;28;20124;-71
2021/05/21 06:32:12;;;;;;;29.88;6.38;;;;;;;10.42;80.02;100293.25;5090651;28;20474;-64
2021/05/21 06:34:37;;;;;;;24.63;5.10;;;;;;;10.18;79.71;100296.81;5092444;28;20072;-66
2021/05/21 06:37:03;;;;;;;24.75;5.43;;;;;;;10.14;79.52;100289.81;5091418;28;20024;-72
2021/05/21 06:39:28;;;;;;;26.25;5.32;;;;;;;10.21;84.38;100287.13;5092477;28;20028;-71
2021/05/21 06:41:54;;;;;;;27.85;6.22;;;;;;;10.12;88.90;100301.25;5090626;28;20028;-70
2021/05/21 06:44:19;;;;;;;26.80;6.28;;;;;;;10.10;89.21;100304.75;5092700;28;20020;-67
2021/05/21 06:46:44;;;;;;;26.92;6.20;;;;;;;10.03;97.37;100298.63;5092282;28;20027;-66
2021/05/21 06:49:11;;;;;;;26.20;6.28;;;;;;;10.00;99.87;100305.66;5091978;28;20028;-65
2021/05/21 06:51:38;;;;;;;26.77;6.45;;;;;;;9.84;100.00;100310.09;5092342;28;20386;-65
2021/05/21 06:54:04;;;;;;;26.05;7.15;;;;;;;9.76;100.00;100313.59;5095938;28;20028;-64
2021/05/21 06:56:29;;;;;;;26.60;7.30;;;;;;;9.61;100.00;100313.63;5087494;28;20024;-65
2021/05/21 06:58:54;;;;;;;27.88;7.28;;;;;;;9.68;100.00;100318.00;5091036;28;20057;-69
2021/05/21 07:01:20;;;;;;;31.58;6.97;;;;;;;9.73;96.93;100316.25;5091410;28;20020;-70
2021/05/21 07:03:45;;;;;;;25.30;6.82;;;;;;;9.76;97.01;100321.53;5092654;28;20024;-65
2021/05/21 07:06:10;;;;;;;26.90;7.20;;;;;;;9.90;96.53;100324.16;5090837;28;20031;-68
2021/05/21 07:08:35;;;;;;;27.52;7.40;;;;;;;10.05;96.54;100325.91;5091701;28;20024;-66
2021/05/21 07:11:01;;;;;;;30.65;7.35;;;;;;;10.34;93.49;100311.78;5092054;28;20024;-66
2021/05/21 07:13:29;;;;;;;28.58;6.68;;;;;;;10.66;87.43;100305.50;5093180;28;20024;-65
2021/05/21 07:15:54;;;;;;;27.58;6.55;;;;;;;10.93;87.98;100306.22;5092060;28;20044;-69
2021/05/21 07:18:20;;;;;;;25.80;6.75;;;;;;;11.10;82.67;100312.31;5087827;28;20033;-69
2021/05/21 07:20:46;;;;;;;28.73;6.25;;;;;;;11.18;80.22;100329.88;5088232;28;20379;-70
2021/05/21 07:23:12;;;;;;;23.90;5.63;;;;;;;11.16;77.13;100324.63;5095288;28;20387;-66
2021/05/21 07:25:38;;;;;;;24.13;5.40;;;;;;;11.26;75.61;100301.63;5095322;28;20020;-72
2021/05/21 07:28:03;;;;;;;27.15;5.95;;;;;;;11.46;76.65;100305.00;5095313;28;20082;-68
2021/05/21 07:30:29;;;;;;;26.05;4.95;;;;;;;11.63;69.54;100304.84;5095474;28;20082;-68
2021/05/21 07:32:54;;;;;;;28.30;5.65;;;;;;;11.68;72.66;100303.03;5093693;28;20043;-67
2021/05/21 07:35:19;;;;;;;25.58;5.32;;;;;;;11.72;72.17;100290.63;5095623;28;20055;-68
2021/05/21 07:37:46;;;;;;;26.70;5.05;;;;;;;11.88;69.87;100299.31;5094758;28;20107;-73
2021/05/21 07:40:12;;;;;;;24.77;4.47;;;;;;;11.97;64.30;100285.13;5095341;28;20475;-65
2021/05/21 07:42:38;;;;;;;23.52;4.38;;;;;;;12.10;64.08;100285.91;5093786;28;20035;-66
2021/05/21 07:45:06;;;;;;;26.60;5.00;;;;;;;12.14;62.61;100287.63;5094362;28;20036;-64
2021/05/21 07:47:31;;;;;;;24.20;5.10;;;;;;;12.15;62.12;100282.31;5093786;28;20031;-70
2021/05/21 07:49:56;;;;;;;27.35;4.90;;;;;;;12.20;59.99;100308.75;5093454;28;20024;-63
2021/05/21 07:52:22;;;;;;;25.77;4.72;;;;;;;12.41;61.06;100296.13;5094466;28;20071;-64
2021/05/21 07:54:47;;;;;;;27.58;4.93;;;;;;;12.69;59.43;100286.94;5093877;28;20055;-63
2021/05/21 07:57:12;;;;;;;26.13;4.78;;;;;;;12.73;59.38;100293.97;5094195;28;20077;-63
2021/05/21 07:59:38;;;;;;;24.63;4.60;;;;;;;12.88;59.96;100306.16;5094831;28;20031;-63
2021/05/21 08:02:04;;;;;;;22.92;4.30;;;;;;;12.68;59.30;100279.91;5092768;28;20046;-63
2021/05/21 08:04:30;;;;;;;28.60;4.80;;;;;;;12.59;58.82;100269.41;5094175;28;20530;-63
2021/05/21 08:06:55;;;;;;;29.42;4.88;;;;;;;12.26;57.88;100326.34;5094499;28;20157;-63
2021/05/21 08:09:21;;;;;;;24.20;4.55;;;;;;;12.41;59.58;100294.38;5098568;28;20494;-63
2021/05/21 08:11:46;;;;;;;25.90;4.82;;;;;;;12.54;60.95;100303.06;5101572;28;20080;-64
2021/05/21 08:14:12;;;;;;;23.73;4.47;;;;;;;12.66;58.65;100296.75;5105908;28;20110;-63
2021/05/21 08:16:38;;;;;;;26.30;4.78;;;;;;;12.78;57.69;100285.09;5104173;28;20118;-63
2021/05/21 08:19:05;;;;;;;29.50;5.50;;;;;;;12.78;57.64;100288.59;5105165;28;20024;-63
2021/05/21 08:21:30;;;;;;;25.00;5.05;;;;;;;12.59;59.72;100285.31;5105300;28;20027;-63
2021/05/21 08:23:57;;;;;;;28.10;4.38;;;;;;;12.20;62.65;100288.44;5100575;28;20024;-64
2021/05/21 08:26:25;;;;;;;27.17;4.25;;;;;;;11.98;61.54;100302.78;5093339;28;20024;-64
2021/05/21 08:28:55;;;;;;;25.00;4.43;;;;;;;11.90;61.75;100313.44;5093075;28;20421;-64
2021/05/21 08:31:21;;;;;;;24.50;4.50;;;;;;;11.82;65.98;100302.94;5093501;28;20032;-64
2021/05/21 08:33:47;;;;;;;26.65;4.97;;;;;;;11.27;67.16;100300.72;5094408;28;20024;-63
2021/05/21 08:36:13;;;;;;;28.58;4.78;;;;;;;10.87;68.66;100303.63;5087484;28;20024;-63
2021/05/21 08:38:43;;;;;;;28.02;5.28;;;;;;;11.14;68.44;100303.47;5092928;28;20089;-63
2021/05/21 08:41:14;;;;;;;25.92;5.22;;;;;;;10.93;74.01;100300.94;5094153;28;20546;-63
2021/05/21 08:43:44;;;;;;;28.45;5.55;;;;;;;10.45;80.27;100291.47;5096474;28;20024;-63
2021/05/21 08:46:10;;;;;;;28.60;5.57;;;;;;;10.29;81.83;100300.31;5092902;28;20482;-63
2021/05/21 08:48:36;;;;;;;29.60;5.70;;;;;;;10.32;80.00;100300.28;5093507;28;20066;-63
2021/05/21 08:51:01;;;;;;;28.40;5.30;;;;;;;10.51;78.07;100302.91;5093022;28;20478;-64
2021/05/21 08:53:27;;;;;;;28.58;5.63;;;;;;;10.93;73.56;100277.13;5093896;28;20020;-63
2021/05/21 08:55:52;;;;;;;28.60;5.75;;;;;;;11.39;72.31;100279.47;5092780;28;20059;-63
2021/05/21 08:58:18;;;;;;;28.63;5.47;;;;;;;11.91;66.86;100290.47;5091663;28;20539;-64
2021/05/21 09:00:43;;;;;;;26.88;5.45;;;;;;;12.21;63.27;100268.97;5092407;28;20021;-63
2021/05/21 09:03:19;;;;;;;27.85;5.60;;;;;;;12.59;62.16;100279.16;5095595;28;20019;-63
2021/05/21 09:06:02;;;;;;;27.33;5.35;;;;;;;12.89;60.20;100281.38;5091258;28;20086;-64
2021/05/21 09:08:40;;;;;;;29.35;5.10;;;;;;;13.34;57.44;100279.81;5092898;28;20028;-64
2021/05/21 09:11:22;;;;;;;28.10;5.40;;;;;;;13.44;56.11;100292.09;5092110;28;20038;-63
2021/05/21 09:13:52;;;;;;;25.67;4.50;;;;;;;13.06;56.32;100301.47;5096111;28;20031;-64
2021/05/21 09:16:20;;;;;;;24.52;4.93;;;;;;;12.85;56.14;100290.28;5093331;28;20047;-64
2021/05/21 09:19:04;;;;;;;25.45;4.82;;;;;;;13.05;57.53;100294.44;5090814;28;20550;-64
2021/05/21 09:21:47;;;;;;;24.33;4.30;;;;;;;13.49;54.77;100303.50;5092633;28;20067;-63
2021/05/21 09:24:14;;;;;;;26.38;4.40;;;;;;;13.90;52.54;100290.44;5091932;28;20028;-64
2021/05/21 09:26:41;;;;;;;24.88;4.55;;;;;;;13.98;51.74;100266.38;5101938;28;20019;-65
2021/05/21 09:29:08;;;;;;;26.23;4.63;;;;;;;13.97;52.04;100280.56;5101814;28;20077;-64
2021/05/21 09:31:45;;;;;;;26.80;4.18;;;;;;;13.86;51.57;100278.09;5105197;28;20551;-64
2021/05/21 09:34:12;;;;;;;28.23;4.85;;;;;;;13.95;51.75;100289.44;5098583;28;20467;-64
2021/05/21 09:36:39;;;;;;;25.77;4.18;;;;;;;14.12;51.33;100272.28;5105225;28;20024;-64
2021/05/21 09:39:11;;;;;;;28.92;4.72;;;;;;;14.37;50.69;100269.16;5101908;28;20028;-64
2021/05/21 09:41:52;;;;;;;28.02;4.70;;;;;;;14.32;49.12;100277.22;5101178;28;20020;-64
2021/05/21 09:44:18;;;;;;;28.27;4.57;;;;;;;14.25;51.46;100278.25;5103878;28;20034;-64
2021/05/21 09:46:47;;;;;;;27.40;4.85;;;;;;;14.50;48.40;100261.81;5099190;28;20024;-63
2021/05/21 09:49:35;;;;;;;25.63;4.10;;;;;;;14.82;47.19;100251.38;5090206;28;20467;-63
2021/05/21 09:52:05;;;;;;;23.70;3.70;;;;;;;14.98;46.73;100264.31;5092550;28;20028;-63
2021/05/21 09:54:51;;;;;;;25.88;3.92;;;;;;;14.56;48.07;100238.63;5091643;28;20165;-63
2021/05/21 09:57:32;;;;;;;26.98;4.40;;;;;;;14.15;48.17;100250.97;5092353;28;20016;-64
2021/05/21 09:59:57;;;;;;;25.40;4.18;;;;;;;14.08;48.53;100241.38;5089165;28;20028;-64
2021/05/21 10:02:28;;;;;;;24.13;4.38;;;;;;;13.86;48.47;100251.53;5091666;28;20023;-64
2021/05/21 10:04:53;;;;;;;27.10;4.38;;;;;;;13.66;50.02;100266.06;5089701;28;20024;-64
2021/05/21 10:07:20;;;;;;;26.42;4.50;;;;;;;13.59;49.19;100257.31;5092577;28;20114;-63
2021/05/21 10:09:46;;;;;;;26.90;4.68;;;;;;;13.91;50.87;100255.00;5093691;28;20532;-64
2021/05/21 10:12:13;;;;;;;26.20;4.75;;;;;;;14.35;48.46;100250.56;5091119;28;20031;-64
2021/05/21 10:14:39;;;;;;;27.45;4.53;;;;;;;15.56;47.85;100253.19;5092739;28;20048;-64
2021/05/21 10:17:06;;;;;;;26.02;4.55;;;;;;;16.58;45.07;100245.06;5091074;28;20048;-64
2021/05/21 10:19:33;;;;;;;23.88;4.30;;;;;;;17.49;42.41;100245.75;5091559;28;20040;-64
2021/05/21 10:22:00;;;;;;;23.17;4.40;;;;;;;17.48;39.55;100252.03;5092396;28;20054;-64
2021/05/21 10:24:34;;;;;;;26.55;4.03;;;;;;;17.61;41.04;100260.50;5102246;28;20031;-64
2021/05/21 10:27:03;;;;;;;26.90;4.13;;;;;;;16.96;41.72;100230.56;5102003;28;20039;-62
2021/05/21 10:29:33;;;;;;;24.08;4.10;;;;;;;15.82;45.13;100231.22;5102485;28;20036;-62
2021/05/21 10:32:14;;;;;;;29.20;4.32;;;;;;;15.65;45.90;100244.94;5102001;28;20039;-62
2021/05/21 10:34:48;;;;;;;26.42;4.38;;;;;;;15.40;43.05;100250.03;5104531;28;20027;-62
2021/05/21 10:37:35;;;;;;;28.05;3.90;;;;;;;15.02;44.27;100249.16;5097223;28;20055;-71
2021/05/21 10:40:09;;;;;;;30.85;5.25;;;;;;;14.51;46.72;100235.19;5102070;28;20028;-72
2021/05/21 10:42:36;;;;;;;30.27;5.05;;;;;;;14.56;45.30;100248.38;5101262;28;20062;-73
2021/05/21 10:45:16;;;;;;;29.25;4.50;;;;;;;14.61;46.99;100214.59;5103855;28;20031;-73
2021/05/21 10:47:45;;;;;;;27.02;4.40;;;;;;;15.68;43.02;100221.75;5091681;28;20537;-72
2021/05/21 10:50:16;;;;;;;28.48;4.22;;;;;;;15.33;44.23;100218.22;5108485;28;20076;-73
2021/05/21 10:52:47;;;;;;;31.63;4.63;;;;;;;14.92;45.65;100214.78;5102332;28;20390;-71
2021/05/21 10:55:12;;;;;;;27.30;4.60;;;;;;;14.35;47.90;100210.69;5101099;28;20032;-70
2021/05/21 10:57:38;;;;;;;21.67;4.10;;;;;;;14.19;47.51;100215.44;5105531;28;20095;-71
2021/05/21 11:00:05;;;;;;;26.05;4.07;;;;;;;14.11;47.46;100231.56;5095012;28;20123;-69
2021/05/21 11:02:43;;;;;;;24.67;4.25;;;;;;;13.65;52.66;100263.44;5095451;28;20040;-70
2021/05/21 11:05:34;;;;;;;25.45;4.80;;;;;;;11.84;65.39;100266.72;5094696;28;20471;-65
2021/05/21 11:08:04;;;;;;;24.85;4.78;;;;;;;10.69;77.76;100284.34;5094069;28;20077;-63
2021/05/21 11:10:32;;;;;;;23.55;4.55;;;;;;;10.32;78.91;100267.72;5095010;28;20165;-63
2021/05/21 11:13:04;;;;;;;27.40;5.05;;;;;;;10.15;81.38;100281.88;5092881;28;20367;-63
2021/05/21 11:15:32;;;;;;;27.55;5.72;;;;;;;10.16;89.49;100262.47;5092707;28;20434;-63